createdAt,value
2022-08-08T00:01:06.505Z,15.30
2022-08-08T00:03:48.147Z,15.29
2022-08-08T00:06:28.413Z,15.30
2022-08-08T00:09:07.941Z,15.29
2022-08-08T00:12:03.020Z,15.31
2022-08-08T00:14:48.455Z,15.29
2022-08-08T00:18:01.783Z,15.27
2022-08-08T00:20:37.240Z,15.26
2022-08-08T00:23:08.471Z,15.25
2022-08-08T00:25:46.567Z,15.25
2022-08-08T00:28:35.916Z,15.23
2022-08-08T00:32:20.086Z,15.21
2022-08-08T00:34:30.534Z,15.19
2022-08-08T00:37:16.298Z,15.13
2022-08-08T00:41:12.734Z,15.12
2022-08-08T00:43:40.314Z,15.07
2022-08-08T00:46:56.902Z,15.05
2022-08-08T00:49:59.301Z,14.98
2022-08-08T00:52:53.953Z,14.96
2022-08-08T00:55:54.758Z,14.96
2022-08-08T00:59:00.092Z,14.94
2022-08-08T01:01:39.027Z,14.91
2022-08-08T01:04:54.262Z,14.92
2022-08-08T01:08:03.076Z,14.91
2022-08-08T01:11:08.278Z,14.88
2022-08-08T01:14:53.676Z,14.85
2022-08-08T01:18:02.204Z,14.79
2022-08-08T01:20:55.171Z,14.78
2022-08-08T01:24:05.706Z,14.77
2022-08-08T01:27:44.175Z,14.75
2022-08-08T01:30:45.935Z,14.70
2022-08-08T01:34:00.564Z,14.73
2022-08-08T01:37:06.307Z,14.72
2022-08-08T01:40:02.975Z,14.71
2022-08-08T01:42:40.535Z,14.70
2022-08-08T01:45:33.721Z,14.71
2022-08-08T01:48:16.744Z,14.73
2022-08-08T01:51:31.560Z,14.73
2022-08-08T01:55:45.332Z,14.75
2022-08-08T01:57:22.142Z,14.79
2022-08-08T02:00:16.036Z,14.89
2022-08-08T02:03:56.121Z,14.92
2022-08-08T02:06:32.495Z,14.92
2022-08-08T02:09:17.471Z,14.95
2022-08-08T02:11:58.756Z,14.98
2022-08-08T02:14:56.077Z,15.01
2022-08-08T02:17:36.742Z,15.05
2022-08-08T02:21:01.139Z,15.09
2022-08-08T02:23:31.709Z,15.08
2022-08-08T02:26:10.248Z,15.06
2022-08-08T02:29:00.102Z,15.07
2022-08-08T02:32:00.489Z,15.05
2022-08-08T02:35:08.884Z,15.05
2022-08-08T02:37:56.833Z,15.06
2022-08-08T02:40:40.433Z,15.10
2022-08-08T02:44:39.100Z,15.15
2022-08-08T02:46:55.397Z,15.19
2022-08-08T02:49:58.842Z,15.25
2022-08-08T02:52:38.430Z,15.26
2022-08-08T02:55:21.398Z,15.25
2022-08-08T02:58:17.753Z,15.27
2022-08-08T03:01:05.669Z,15.31
2022-08-08T03:05:04.162Z,15.33
2022-08-08T03:07:19.957Z,15.33
2022-08-08T03:10:05.209Z,15.35
2022-08-08T03:13:02.439Z,15.40
2022-08-08T03:15:58.222Z,15.43
2022-08-08T03:18:37.043Z,15.48
2022-08-08T03:21:09.573Z,15.52
2022-08-08T03:23:57.389Z,15.57
2022-08-08T03:26:32.758Z,15.63
2022-08-08T03:29:16.829Z,15.70
2022-08-08T03:32:08.717Z,15.75
2022-08-08T03:34:40.140Z,15.84
2022-08-08T03:38:00.222Z,15.91
2022-08-08T03:40:03.665Z,15.96
2022-08-08T03:42:32.684Z,16.02
2022-08-08T03:45:02.145Z,16.06
2022-08-08T03:47:57.622Z,16.12
2022-08-08T03:50:27.443Z,16.16
2022-08-08T03:52:57.585Z,16.20
2022-08-08T03:55:56.255Z,16.26
2022-08-08T03:58:34.216Z,16.33
2022-08-08T04:01:23.182Z,16.37
2022-08-08T04:03:57.963Z,16.42
2022-08-08T04:06:31.721Z,16.46
2022-08-08T04:09:08.757Z,16.49
2022-08-08T04:11:58.473Z,16.53
2022-08-08T04:14:33.839Z,16.59
2022-08-08T04:17:04.530Z,16.63
2022-08-08T04:19:36.963Z,16.66
2022-08-08T04:22:05.087Z,16.70
2022-08-08T04:24:38.123Z,16.75
2022-08-08T04:27:19.742Z,16.77
2022-08-08T04:30:17.259Z,16.80
2022-08-08T04:32:47.923Z,16.85
2022-08-08T04:35:18.259Z,16.88
2022-08-08T04:37:50.018Z,16.91
2022-08-08T04:40:24.249Z,16.92
2022-08-08T04:43:00.802Z,16.94
2022-08-08T04:45:36.315Z,16.95
2022-08-08T04:48:05.575Z,16.98
2022-08-08T04:50:44.476Z,17.00
2022-08-08T04:54:36.106Z,17.01
2022-08-08T04:56:02.166Z,17.01
2022-08-08T04:58:35.045Z,17.04
2022-08-08T05:01:09.176Z,17.05
2022-08-08T05:04:09.189Z,17.06
2022-08-08T05:06:29.478Z,17.09
2022-08-08T05:09:02.142Z,17.12
2022-08-08T05:11:39.322Z,17.13
2022-08-08T05:14:12.232Z,17.17
2022-08-08T05:16:54.288Z,17.17
2022-08-08T05:20:11.495Z,17.19
2022-08-08T05:22:20.971Z,17.20
2022-08-08T05:24:50.536Z,17.24
2022-08-08T05:27:21.963Z,17.27
2022-08-08T05:29:53.896Z,17.29
2022-08-08T05:32:27.765Z,17.30
2022-08-08T05:35:04.398Z,17.31
2022-08-08T05:37:48.978Z,17.33
2022-08-08T05:40:28.110Z,17.35
2022-08-08T05:43:01.598Z,17.38
2022-08-08T05:45:41.439Z,17.38
2022-08-08T05:48:12.664Z,17.41
2022-08-08T05:50:42.956Z,17.45
2022-08-08T05:53:55.401Z,17.49
2022-08-08T05:56:10.228Z,17.53
2022-08-08T05:58:56.709Z,17.60
2022-08-08T06:01:55.978Z,17.65
2022-08-08T06:04:23.229Z,17.70
2022-08-08T06:06:53.963Z,17.73
2022-08-08T06:10:00.004Z,17.77
2022-08-08T06:12:18.663Z,17.83
2022-08-08T06:14:57.855Z,17.89
2022-08-08T06:17:50.215Z,17.96
2022-08-08T06:20:16.300Z,18.06
2022-08-08T06:22:44.694Z,18.19
2022-08-08T06:25:19.052Z,18.31
2022-08-08T06:28:10.630Z,18.42
2022-08-08T06:30:41.581Z,18.55
2022-08-08T06:33:13.296Z,18.72
2022-08-08T06:36:06.807Z,18.88
2022-08-08T06:38:37.240Z,19.06
2022-08-08T06:41:13.479Z,19.24
2022-08-08T06:43:47.517Z,19.55
2022-08-08T06:46:26.681Z,19.80
2022-08-08T06:48:59.260Z,19.91
2022-08-08T06:51:47.177Z,20.00
2022-08-08T06:54:17.522Z,20.10
2022-08-08T06:56:51.563Z,20.23
2022-08-08T06:59:21.325Z,20.46
2022-08-08T07:02:17.968Z,20.70
2022-08-08T07:04:52.798Z,21.02
2022-08-08T07:07:27.933Z,21.48
2022-08-08T07:10:03.111Z,21.96
2022-08-08T07:12:42.782Z,22.53
2022-08-08T07:15:23.352Z,23.07
2022-08-08T07:18:36.499Z,23.87
2022-08-08T07:20:55.258Z,24.74
2022-08-08T07:23:24.087Z,25.41
2022-08-08T07:25:57.027Z,26.08
2022-08-08T07:28:31.697Z,26.32
2022-08-08T07:31:04.611Z,26.17
2022-08-08T07:33:37.890Z,25.87
2022-08-08T07:36:08.501Z,25.54
2022-08-08T07:38:38.459Z,25.20
2022-08-08T07:41:16.677Z,25.19
2022-08-08T07:43:54.809Z,25.24
2022-08-08T07:46:29.351Z,25.14
2022-08-08T07:49:03.407Z,25.50
2022-08-08T07:51:45.155Z,26.04
2022-08-08T07:54:30.753Z,26.40
2022-08-08T07:57:08.852Z,26.39
2022-08-08T07:59:42.518Z,26.27
2022-08-08T08:02:35.951Z,25.98
2022-08-08T08:05:04.143Z,25.70
2022-08-08T08:07:45.730Z,25.49
2022-08-08T08:10:18.049Z,25.29
2022-08-08T08:13:01.840Z,25.05
2022-08-08T08:15:32.123Z,24.82
2022-08-08T08:18:03.784Z,25.04
2022-08-08T08:20:31.637Z,25.75
2022-08-08T08:23:05.004Z,26.20
2022-08-08T08:25:42.302Z,26.18
2022-08-08T08:28:16.985Z,26.06
2022-08-08T08:30:50.003Z,25.95
2022-08-08T08:33:18.611Z,25.72
2022-08-08T08:36:18.522Z,25.53
2022-08-08T08:38:38.901Z,25.32
2022-08-08T08:41:20.248Z,25.13
2022-08-08T08:43:52.111Z,24.93
2022-08-08T08:46:25.811Z,24.85
2022-08-08T08:48:54.589Z,25.29
2022-08-08T08:51:26.918Z,26.02
2022-08-08T08:54:02.176Z,26.73
2022-08-08T08:56:36.743Z,27.14
2022-08-08T08:59:15.787Z,27.69
2022-08-08T09:01:52.495Z,28.20
2022-08-08T09:04:32.175Z,28.50
2022-08-08T09:07:16.895Z,28.65
2022-08-08T09:09:55.034Z,28.44
2022-08-08T09:12:28.580Z,28.19
2022-08-08T09:14:59.086Z,28.41
2022-08-08T09:17:41.753Z,28.85
2022-08-08T09:22:02.439Z,29.52
2022-08-08T09:23:10.579Z,30.24
2022-08-08T09:26:00.644Z,30.68
2022-08-08T09:28:38.327Z,30.84
2022-08-08T09:31:14.470Z,30.68
2022-08-08T09:34:16.061Z,30.40
2022-08-08T09:36:35.966Z,29.97
2022-08-08T09:39:10.323Z,29.63
2022-08-08T09:42:15.167Z,29.34
2022-08-08T09:44:47.335Z,28.94
2022-08-08T09:47:25.386Z,28.53
2022-08-08T09:50:09.915Z,28.20
2022-08-08T09:52:57.651Z,28.03
2022-08-08T09:55:51.706Z,27.75
2022-08-08T09:58:27.572Z,27.58
2022-08-08T10:01:15.278Z,27.43
2022-08-08T10:03:58.292Z,27.30
2022-08-08T10:06:32.639Z,27.18
2022-08-08T10:09:03.146Z,27.07
2022-08-08T10:12:27.157Z,26.94
2022-08-08T10:14:27.716Z,26.75
2022-08-08T10:17:38.697Z,26.62
2022-08-08T10:19:58.125Z,26.59
2022-08-08T10:22:26.968Z,26.54
2022-08-08T10:24:56.303Z,26.51
2022-08-08T10:27:28.376Z,26.46
2022-08-08T10:30:05.357Z,26.59
2022-08-08T10:32:34.095Z,26.74
2022-08-08T10:35:03.094Z,26.92
2022-08-08T10:37:34.487Z,27.23
2022-08-08T10:40:16.478Z,27.57
2022-08-08T10:42:45.388Z,27.84
2022-08-08T10:45:15.951Z,27.90
2022-08-08T10:47:48.447Z,28.00
2022-08-08T10:50:23.872Z,28.27
2022-08-08T10:52:51.569Z,28.37
2022-08-08T10:55:40.416Z,28.31
2022-08-08T10:58:08.661Z,28.28
2022-08-08T11:00:53.117Z,28.56
2022-08-08T11:04:00.583Z,28.93
2022-08-08T11:06:34.138Z,29.27
2022-08-08T11:09:02.968Z,29.45
2022-08-08T11:12:06.466Z,29.66
2022-08-08T11:14:27.744Z,29.88
2022-08-08T11:16:57.527Z,29.87
2022-08-08T11:19:29.093Z,29.72
2022-08-08T11:21:59.874Z,29.79
2022-08-08T11:24:29.048Z,29.94
2022-08-08T11:26:58.722Z,30.04
2022-08-08T11:29:42.002Z,30.30
2022-08-08T11:32:18.307Z,30.60
2022-08-08T11:38:38.799Z,31.09
2022-08-08T11:40:25.899Z,31.32
2022-08-08T11:42:55.439Z,31.54
2022-08-08T11:45:23.629Z,31.77
2022-08-08T11:48:02.671Z,31.93
2022-08-08T11:50:34.297Z,32.05
2022-08-08T11:53:05.866Z,32.10
2022-08-08T11:55:36.455Z,32.15
2022-08-08T11:58:14.586Z,32.15
2022-08-08T12:00:47.125Z,32.07
2022-08-08T12:03:20.912Z,32.07
2022-08-08T12:05:49.494Z,32.08
2022-08-08T12:08:17.182Z,32.16
2022-08-08T12:10:48.663Z,32.18
2022-08-08T12:13:17.165Z,32.16
2022-08-08T12:15:49.110Z,32.23
2022-08-08T12:18:21.005Z,32.16
2022-08-08T12:20:49.846Z,32.00
2022-08-08T12:23:40.683Z,32.00
2022-08-08T12:26:16.846Z,32.02
2022-08-08T12:28:55.929Z,32.03
2022-08-08T12:31:31.362Z,32.05
2022-08-08T12:34:09.302Z,32.14
2022-08-08T12:36:40.916Z,32.26
2022-08-08T12:39:14.196Z,32.29
2022-08-08T12:41:57.468Z,32.28
2022-08-08T12:44:32.571Z,32.30
2022-08-08T12:47:02.719Z,32.25
2022-08-08T12:49:45.165Z,32.32
2022-08-08T12:52:28.658Z,32.31
2022-08-08T12:55:09.487Z,32.18
2022-08-08T12:57:49.624Z,32.08
2022-08-08T13:00:34.004Z,32.08
2022-08-08T13:03:07.325Z,32.00
2022-08-08T13:06:03.166Z,31.87
2022-08-08T13:08:33.421Z,31.75
2022-08-08T13:11:04.332Z,31.80
2022-08-08T13:13:37.425Z,31.71
2022-08-08T13:16:18.353Z,31.61
2022-08-08T13:18:58.367Z,31.61
2022-08-08T13:21:48.837Z,31.66
2022-08-08T13:24:39.461Z,31.56
2022-08-08T13:27:10.811Z,31.49
2022-08-08T13:29:48.815Z,31.40
2022-08-08T13:32:17.931Z,31.25
2022-08-08T13:34:52.521Z,31.10
2022-08-08T13:37:52.275Z,31.01
2022-08-08T13:40:11.337Z,30.88
2022-08-08T13:42:45.959Z,30.73
2022-08-08T13:45:14.931Z,30.69
2022-08-08T13:47:54.182Z,30.66
2022-08-08T13:50:39.257Z,30.64
2022-08-08T13:53:24.617Z,30.58
2022-08-08T13:55:57.502Z,30.52
2022-08-08T13:58:29.129Z,30.53
2022-08-08T14:00:57.000Z,30.47
2022-08-08T14:03:53.880Z,30.41
2022-08-08T14:06:32.101Z,30.37
2022-08-08T14:09:25.152Z,30.34
2022-08-08T14:11:50.321Z,30.28
2022-08-08T14:14:21.037Z,30.11
2022-08-08T14:16:53.802Z,29.94
2022-08-08T14:19:57.029Z,29.87
2022-08-08T14:22:20.413Z,29.78
2022-08-08T14:24:53.162Z,29.59
2022-08-08T14:27:27.257Z,29.41
2022-08-08T14:29:57.824Z,29.35
2022-08-08T14:32:29.990Z,29.37
2022-08-08T14:34:59.133Z,29.38
2022-08-08T14:37:43.007Z,29.42
2022-08-08T14:40:24.064Z,29.40
2022-08-08T14:42:56.558Z,29.34
2022-08-08T14:45:46.995Z,29.26
2022-08-08T14:48:34.959Z,29.17
2022-08-08T14:51:07.243Z,29.02
2022-08-08T14:53:55.629Z,28.88
2022-08-08T14:56:26.143Z,28.83
2022-08-08T14:58:54.413Z,28.83
2022-08-08T15:01:27.831Z,28.82
2022-08-08T15:04:08.916Z,28.71
2022-08-08T15:06:37.299Z,28.62
2022-08-08T15:09:05.080Z,28.46
2022-08-08T15:11:43.256Z,28.33
2022-08-08T15:14:14.518Z,28.20
2022-08-08T15:16:42.590Z,28.20
2022-08-08T15:19:11.841Z,28.18
2022-08-08T15:21:44.627Z,28.10
2022-08-08T15:24:14.217Z,27.98
2022-08-08T15:26:52.404Z,27.84
2022-08-08T15:29:24.587Z,27.69
2022-08-08T15:32:18.257Z,27.48
2022-08-08T15:34:41.124Z,27.29
2022-08-08T15:37:08.652Z,27.15
2022-08-08T15:39:39.694Z,27.06
2022-08-08T15:42:17.908Z,27.06
2022-08-08T15:44:57.657Z,27.05
2022-08-08T15:47:25.253Z,27.05
2022-08-08T15:49:53.407Z,27.03
2022-08-08T15:52:22.493Z,27.00
2022-08-08T15:54:52.886Z,26.80
2022-08-08T15:57:22.346Z,26.65
2022-08-08T16:00:05.749Z,26.48
2022-08-08T16:02:50.271Z,26.37
2022-08-08T16:05:19.297Z,26.33
2022-08-08T16:07:52.450Z,26.33
2022-08-08T16:13:02.008Z,26.31
2022-08-08T16:13:43.262Z,26.24
2022-08-08T16:16:09.281Z,26.18
2022-08-08T16:18:44.029Z,26.15
2022-08-08T16:21:27.154Z,26.12
2022-08-08T16:23:58.840Z,26.10
2022-08-08T16:26:33.711Z,26.07
2022-08-08T16:29:07.094Z,26.00
2022-08-08T16:31:41.949Z,25.87
2022-08-08T16:34:12.750Z,25.81
2022-08-08T16:36:41.183Z,25.73
2022-08-08T16:39:28.144Z,25.68
2022-08-08T16:42:01.902Z,25.63
2022-08-08T16:44:33.872Z,25.52
2022-08-08T16:47:16.050Z,25.48
2022-08-08T16:49:43.572Z,25.40
2022-08-08T16:55:07.676Z,25.35
2022-08-08T16:55:33.596Z,25.30
2022-08-08T16:58:15.174Z,25.22
2022-08-08T17:00:36.087Z,25.13
2022-08-08T17:03:04.179Z,25.08
2022-08-08T17:05:44.616Z,25.01
2022-08-08T17:08:12.727Z,24.93
2022-08-08T17:10:58.235Z,24.85
2022-08-08T17:13:40.972Z,24.83
2022-08-08T17:16:22.213Z,24.78
2022-08-08T17:18:54.661Z,24.76
2022-08-08T17:21:22.187Z,24.62
2022-08-08T17:24:00.902Z,24.54
2022-08-08T17:26:30.569Z,24.39
2022-08-08T17:29:04.308Z,24.31
2022-08-08T17:31:45.721Z,24.23
2022-08-08T17:34:53.563Z,24.11
2022-08-08T17:37:09.041Z,23.96
2022-08-08T17:40:04.867Z,23.86
2022-08-08T17:42:24.924Z,23.73
2022-08-08T17:44:57.477Z,23.58
2022-08-08T17:47:28.356Z,23.46
2022-08-08T17:50:06.449Z,23.35
2022-08-08T17:52:35.171Z,23.24
2022-08-08T17:55:05.333Z,23.16
2022-08-08T17:57:37.511Z,23.06
2022-08-08T18:00:13.323Z,22.94
2022-08-08T18:03:04.752Z,22.82
2022-08-08T18:05:48.947Z,22.68
2022-08-08T18:08:38.354Z,22.56
2022-08-08T18:11:06.872Z,22.44
2022-08-08T18:13:42.066Z,22.37
2022-08-08T18:16:10.347Z,22.28
2022-08-08T18:18:52.338Z,22.22
2022-08-08T18:21:35.531Z,22.11
2022-08-08T18:24:17.709Z,22.03
2022-08-08T18:26:53.801Z,21.94
2022-08-08T18:29:27.254Z,21.84
2022-08-08T18:32:04.111Z,21.71
2022-08-08T18:34:35.046Z,21.59
2022-08-08T18:37:07.909Z,21.51
2022-08-08T18:39:37.456Z,21.46
2022-08-08T18:42:13.887Z,21.40
2022-08-08T18:44:54.952Z,21.33
2022-08-08T18:47:23.983Z,21.26
2022-08-08T18:49:58.305Z,21.20
2022-08-08T18:52:27.528Z,21.10
2022-08-08T18:54:59.153Z,20.99
2022-08-08T18:57:31.751Z,20.90
2022-08-08T19:00:06.170Z,20.81
2022-08-08T19:02:38.742Z,20.73
2022-08-08T19:05:23.862Z,20.66
2022-08-08T19:07:58.351Z,20.58
2022-08-08T19:10:27.559Z,20.50
2022-08-08T19:12:58.054Z,20.44
2022-08-08T19:15:33.933Z,20.36
2022-08-08T19:18:33.471Z,20.29
2022-08-08T19:20:52.029Z,20.20
2022-08-08T19:23:21.837Z,20.13
2022-08-08T19:26:01.283Z,20.04
2022-08-08T19:28:30.624Z,19.95
2022-08-08T19:31:04.079Z,19.89
2022-08-08T19:33:51.613Z,19.83
2022-08-08T19:36:25.208Z,19.76
2022-08-08T19:38:55.413Z,19.69
2022-08-08T19:41:25.406Z,19.60
2022-08-08T19:44:02.218Z,19.52
2022-08-08T19:46:33.611Z,19.44
2022-08-08T19:49:01.693Z,19.37
2022-08-08T19:51:43.255Z,19.32
2022-08-08T19:54:11.685Z,19.25
2022-08-08T19:56:41.497Z,19.20
2022-08-08T19:59:22.566Z,19.13
2022-08-08T20:02:02.499Z,19.07
2022-08-08T20:04:31.703Z,19.02
2022-08-08T20:07:05.381Z,18.96
2022-08-08T20:09:56.646Z,18.90
2022-08-08T20:12:32.088Z,18.84
2022-08-08T20:15:14.156Z,18.78
2022-08-08T20:17:44.131Z,18.73
2022-08-08T20:20:19.247Z,18.67
2022-08-08T20:22:53.828Z,18.62
2022-08-08T20:25:24.698Z,18.57
2022-08-08T20:27:57.765Z,18.53
2022-08-08T20:30:52.780Z,18.48
2022-08-08T20:35:58.345Z,18.39
2022-08-08T20:38:32.769Z,18.35
2022-08-08T20:41:05.930Z,18.32
2022-08-08T20:43:49.506Z,18.27
2022-08-08T20:46:20.425Z,18.22
2022-08-08T20:48:55.652Z,18.18
2022-08-08T20:51:27.346Z,18.15
2022-08-08T20:54:04.226Z,18.11
2022-08-08T20:57:16.394Z,18.07
2022-08-08T20:59:29.229Z,18.03
2022-08-08T21:02:06.652Z,17.99
2022-08-08T21:04:36.810Z,17.96
2022-08-08T21:07:13.185Z,17.93
2022-08-08T21:10:02.012Z,17.89
2022-08-08T21:12:35.663Z,17.86
2022-08-08T21:15:06.926Z,17.82
2022-08-08T21:17:35.682Z,17.77
2022-08-08T21:20:04.815Z,17.74
2022-08-08T21:22:34.746Z,17.70
2022-08-08T21:25:04.108Z,17.68
2022-08-08T21:28:06.363Z,17.65
2022-08-08T21:30:21.970Z,17.62
2022-08-08T21:32:52.506Z,17.58
2022-08-08T21:36:16.453Z,17.55
2022-08-08T21:38:16.240Z,17.52
2022-08-08T21:40:56.529Z,17.47
2022-08-08T21:43:24.949Z,17.43
2022-08-08T21:48:08.148Z,17.39
2022-08-08T21:48:41.608Z,17.36
2022-08-08T21:51:13.233Z,17.32
2022-08-08T21:54:32.272Z,17.28
2022-08-08T21:56:42.162Z,17.22
2022-08-08T21:59:11.368Z,17.20
2022-08-08T22:01:43.483Z,17.16
2022-08-08T22:04:19.661Z,17.13
2022-08-08T22:06:49.521Z,17.09
2022-08-08T22:09:17.266Z,17.05
2022-08-08T22:12:02.699Z,16.99
2022-08-08T22:14:34.788Z,16.97
2022-08-08T22:17:03.784Z,16.93
2022-08-08T22:20:10.455Z,16.90
2022-08-08T22:22:18.971Z,16.84
2022-08-08T22:24:46.544Z,16.80
2022-08-08T22:27:16.881Z,16.76
2022-08-08T22:30:05.167Z,16.73
2022-08-08T22:32:41.424Z,16.70
2022-08-08T22:35:09.115Z,16.65
2022-08-08T22:37:53.730Z,16.61
2022-08-08T22:40:22.215Z,16.58
2022-08-08T22:42:51.131Z,16.54
2022-08-08T22:45:18.741Z,16.52
2022-08-08T22:47:48.644Z,16.49
2022-08-08T22:50:27.189Z,16.45
2022-08-08T22:54:17.025Z,16.42
2022-08-08T22:55:59.307Z,16.38
2022-08-08T22:58:31.122Z,16.35
2022-08-08T23:01:00.448Z,16.33
2022-08-08T23:03:34.296Z,16.30
2022-08-08T23:06:16.152Z,16.28
2022-08-08T23:08:55.987Z,16.27
2022-08-08T23:12:17.227Z,16.25
2022-08-08T23:14:17.546Z,16.19
2022-08-08T23:16:48.119Z,16.16
2022-08-08T23:19:22.212Z,16.13
2022-08-08T23:21:49.765Z,16.10
2022-08-08T23:24:22.218Z,16.07
2022-08-08T23:26:55.329Z,16.04
2022-08-08T23:29:27.058Z,16.01
2022-08-08T23:31:57.892Z,15.98
2022-08-08T23:34:25.666Z,15.95
2022-08-08T23:36:58.190Z,15.91
2022-08-08T23:39:26.525Z,15.87
2022-08-08T23:42:00.584Z,15.83
2022-08-08T23:44:30.626Z,15.79
2022-08-08T23:49:01.623Z,15.77
2022-08-08T23:49:49.491Z,15.75
2022-08-08T23:52:28.444Z,15.73
2022-08-08T23:55:07.224Z,15.71
2022-08-08T23:57:53.118Z,15.71
